sensor_id;sensor_type;location;lat;lon;timestamp;temperature;humidity
17988;DHT22;9119;50.932;5.342;2022-12-08T00:00:53;5.20;99.90
17988;DHT22;9119;50.932;5.342;2022-12-08T00:03:19;5.20;99.90
17988;DHT22;9119;50.932;5.342;2022-12-08T00:05:46;5.30;99.90
17988;DHT22;9119;50.932;5.342;2022-12-08T00:08:30;5.30;99.90
17988;DHT22;9119;50.932;5.342;2022-12-08T00:11:15;5.10;99.90
17988;DHT22;9119;50.932;5.342;2022-12-08T00:13:41;5.20;99.90
17988;DHT22;9119;50.932;5.342;2022-12-08T00:16:07;5.20;99.90
17988;DHT22;9119;50.932;5.342;2022-12-08T00:18:33;5.20;99.90
17988;DHT22;9119;50.932;5.342;2022-12-08T00:20:59;5.20;99.90
17988;DHT22;9119;50.932;5.342;2022-12-08T00:23:25;5.30;99.90
17988;DHT22;9119;50.932;5.342;2022-12-08T00:25:51;5.20;99.90
17988;DHT22;9119;50.932;5.342;2022-12-08T00:28:17;5.20;99.90
17988;DHT22;9119;50.932;5.342;2022-12-08T00:30:43;5.20;99.90
17988;DHT22;9119;50.932;5.342;2022-12-08T00:33:09;5.20;99.90
17988;DHT22;9119;50.932;5.342;2022-12-08T00:35:35;5.20;99.90
17988;DHT22;9119;50.932;5.342;2022-12-08T00:38:02;5.30;99.90
17988;DHT22;9119;50.932;5.342;2022-12-08T00:40:28;5.20;99.90
17988;DHT22;9119;50.932;5.342;2022-12-08T00:42:53;5.20;99.90
17988;DHT22;9119;50.932;5.342;2022-12-08T00:45:19;5.20;99.90
17988;DHT22;9119;50.932;5.342;2022-12-08T00:47:45;5.30;99.90
17988;DHT22;9119;50.932;5.342;2022-12-08T00:50:10;5.20;99.90
17988;DHT22;9119;50.932;5.342;2022-12-08T00:52:36;5.20;99.90
17988;DHT22;9119;50.932;5.342;2022-12-08T00:55:03;5.30;99.90
17988;DHT22;9119;50.932;5.342;2022-12-08T00:57:29;5.20;99.90
17988;DHT22;9119;50.932;5.342;2022-12-08T00:59:55;5.30;99.90
17988;DHT22;9119;50.932;5.342;2022-12-08T01:02:22;5.20;99.90
17988;DHT22;9119;50.932;5.342;2022-12-08T01:04:47;5.30;99.90
17988;DHT22;9119;50.932;5.342;2022-12-08T01:07:13;5.30;99.90
17988;DHT22;9119;50.932;5.342;2022-12-08T01:09:39;5.20;99.90
17988;DHT22;9119;50.932;5.342;2022-12-08T01:12:05;5.10;99.90
17988;DHT22;9119;50.932;5.342;2022-12-08T01:14:31;5.10;99.90
17988;DHT22;9119;50.932;5.342;2022-12-08T01:16:56;5.10;99.90
17988;DHT22;9119;50.932;5.342;2022-12-08T01:19:22;5.10;99.90
17988;DHT22;9119;50.932;5.342;2022-12-08T01:21:48;5.10;99.90
17988;DHT22;9119;50.932;5.342;2022-12-08T01:24:16;5.20;99.90
17988;DHT22;9119;50.932;5.342;2022-12-08T01:26:42;5.00;99.90
17988;DHT22;9119;50.932;5.342;2022-12-08T01:29:08;5.10;99.90
17988;DHT22;9119;50.932;5.342;2022-12-08T01:31:34;4.90;99.90
17988;DHT22;9119;50.932;5.342;2022-12-08T01:34:00;5.00;99.90
17988;DHT22;9119;50.932;5.342;2022-12-08T01:36:28;5.00;99.90
17988;DHT22;9119;50.932;5.342;2022-12-08T01:38:56;5.20;99.90
17988;DHT22;9119;50.932;5.342;2022-12-08T01:41:23;5.00;99.90
17988;DHT22;9119;50.932;5.342;2022-12-08T01:44:54;5.00;99.90
17988;DHT22;9119;50.932;5.342;2022-12-08T01:46:48;5.10;99.90
17988;DHT22;9119;50.932;5.342;2022-12-08T01:49:29;5.10;99.90
17988;DHT22;9119;50.932;5.342;2022-12-08T01:52:00;5.10;99.90
17988;DHT22;9119;50.932;5.342;2022-12-08T01:54:37;5.20;99.90
17988;DHT22;9119;50.932;5.342;2022-12-08T01:57:10;5.10;99.90
17988;DHT22;9119;50.932;5.342;2022-12-08T01:59:41;5.00;99.90
17988;DHT22;9119;50.932;5.342;2022-12-08T02:02:09;4.90;99.90
17988;DHT22;9119;50.932;5.342;2022-12-08T02:04:35;5.00;99.90
17988;DHT22;9119;50.932;5.342;2022-12-08T02:07:02;4.90;99.90
17988;DHT22;9119;50.932;5.342;2022-12-08T02:09:28;5.00;99.90
17988;DHT22;9119;50.932;5.342;2022-12-08T02:11:55;5.00;99.90
17988;DHT22;9119;50.932;5.342;2022-12-08T02:14:23;5.00;99.90
17988;DHT22;9119;50.932;5.342;2022-12-08T02:17:37;5.00;99.90
17988;DHT22;9119;50.932;5.342;2022-12-08T02:20:19;4.90;99.90
17988;DHT22;9119;50.932;5.342;2022-12-08T02:22:57;4.80;99.90
17988;DHT22;9119;50.932;5.342;2022-12-08T02:28:30;4.90;99.90
17988;DHT22;9119;50.932;5.342;2022-12-08T02:31:10;5.00;99.90
17988;DHT22;9119;50.932;5.342;2022-12-08T02:34:00;5.10;99.90
17988;DHT22;9119;50.932;5.342;2022-12-08T02:47:14;5.00;99.90
17988;DHT22;9119;50.932;5.342;2022-12-08T02:49:42;4.90;99.90
17988;DHT22;9119;50.932;5.342;2022-12-08T02:55:02;5.10;99.90
17988;DHT22;9119;50.932;5.342;2022-12-08T03:00:07;4.70;99.90
17988;DHT22;9119;50.932;5.342;2022-12-08T03:07:52;4.70;99.90
17988;DHT22;9119;50.932;5.342;2022-12-08T03:13:00;4.80;99.90
17988;DHT22;9119;50.932;5.342;2022-12-08T03:15:30;4.80;99.90
17988;DHT22;9119;50.932;5.342;2022-12-08T03:17:57;4.90;99.90
17988;DHT22;9119;50.932;5.342;2022-12-08T03:20:27;4.80;99.90
17988;DHT22;9119;50.932;5.342;2022-12-08T03:22:56;4.80;99.90
17988;DHT22;9119;50.932;5.342;2022-12-08T03:25:25;4.80;99.90
17988;DHT22;9119;50.932;5.342;2022-12-08T03:27:52;4.80;99.90
17988;DHT22;9119;50.932;5.342;2022-12-08T03:30:18;4.80;99.90
17988;DHT22;9119;50.932;5.342;2022-12-08T03:35:34;4.70;99.90
17988;DHT22;9119;50.932;5.342;2022-12-08T03:38:06;4.70;99.90
17988;DHT22;9119;50.932;5.342;2022-12-08T03:40:32;4.80;99.90
17988;DHT22;9119;50.932;5.342;2022-12-08T03:42:58;4.60;99.90
17988;DHT22;9119;50.932;5.342;2022-12-08T03:45:24;4.60;99.90
17988;DHT22;9119;50.932;5.342;2022-12-08T03:47:50;4.70;99.90
17988;DHT22;9119;50.932;5.342;2022-12-08T03:50:16;4.60;99.90
17988;DHT22;9119;50.932;5.342;2022-12-08T03:52:41;4.50;99.90
17988;DHT22;9119;50.932;5.342;2022-12-08T03:55:07;4.50;99.90
17988;DHT22;9119;50.932;5.342;2022-12-08T03:57:33;4.50;99.90
17988;DHT22;9119;50.932;5.342;2022-12-08T03:59:59;4.50;99.90
17988;DHT22;9119;50.932;5.342;2022-12-08T04:02:25;4.50;99.90
17988;DHT22;9119;50.932;5.342;2022-12-08T04:04:50;4.60;99.90
17988;DHT22;9119;50.932;5.342;2022-12-08T04:07:16;4.60;99.90
17988;DHT22;9119;50.932;5.342;2022-12-08T04:09:42;4.60;99.90
17988;DHT22;9119;50.932;5.342;2022-12-08T04:12:09;4.60;99.90
17988;DHT22;9119;50.932;5.342;2022-12-08T04:14:35;4.60;99.90
17988;DHT22;9119;50.932;5.342;2022-12-08T04:17:00;4.70;99.90
17988;DHT22;9119;50.932;5.342;2022-12-08T04:19:26;4.60;99.90
17988;DHT22;9119;50.932;5.342;2022-12-08T04:21:52;4.60;99.90
17988;DHT22;9119;50.932;5.342;2022-12-08T04:24:17;4.60;99.90
17988;DHT22;9119;50.932;5.342;2022-12-08T04:26:43;4.50;99.90
17988;DHT22;9119;50.932;5.342;2022-12-08T04:29:09;4.50;99.90
17988;DHT22;9119;50.932;5.342;2022-12-08T04:31:34;4.50;99.90
17988;DHT22;9119;50.932;5.342;2022-12-08T04:34:00;4.80;99.90
17988;DHT22;9119;50.932;5.342;2022-12-08T04:36:26;4.50;99.90
17988;DHT22;9119;50.932;5.342;2022-12-08T04:38:51;4.50;99.90
17988;DHT22;9119;50.932;5.342;2022-12-08T04:41:17;4.40;99.90
17988;DHT22;9119;50.932;5.342;2022-12-08T04:43:43;4.40;99.90
17988;DHT22;9119;50.932;5.342;2022-12-08T04:46:10;4.50;99.90
17988;DHT22;9119;50.932;5.342;2022-12-08T04:48:37;4.50;99.90
17988;DHT22;9119;50.932;5.342;2022-12-08T04:51:03;4.40;99.90
17988;DHT22;9119;50.932;5.342;2022-12-08T04:53:29;4.40;99.90
17988;DHT22;9119;50.932;5.342;2022-12-08T04:55:54;4.40;99.90
17988;DHT22;9119;50.932;5.342;2022-12-08T04:58:20;4.40;99.90
17988;DHT22;9119;50.932;5.342;2022-12-08T05:00:46;4.30;99.90
17988;DHT22;9119;50.932;5.342;2022-12-08T05:03:13;4.30;99.90
17988;DHT22;9119;50.932;5.342;2022-12-08T05:05:39;4.50;99.90
17988;DHT22;9119;50.932;5.342;2022-12-08T05:08:05;4.30;99.90
17988;DHT22;9119;50.932;5.342;2022-12-08T05:10:31;4.10;99.90
17988;DHT22;9119;50.932;5.342;2022-12-08T05:12:58;4.10;99.90
17988;DHT22;9119;50.932;5.342;2022-12-08T05:15:24;4.20;99.90
17988;DHT22;9119;50.932;5.342;2022-12-08T05:17:50;4.40;99.90
17988;DHT22;9119;50.932;5.342;2022-12-08T05:20:16;4.20;99.90
17988;DHT22;9119;50.932;5.342;2022-12-08T05:22:41;4.30;99.90
17988;DHT22;9119;50.932;5.342;2022-12-08T05:25:07;4.30;99.90
17988;DHT22;9119;50.932;5.342;2022-12-08T05:27:33;4.30;99.90
17988;DHT22;9119;50.932;5.342;2022-12-08T05:29:59;4.20;99.90
17988;DHT22;9119;50.932;5.342;2022-12-08T05:32:24;4.20;99.90
17988;DHT22;9119;50.932;5.342;2022-12-08T05:34:50;4.20;99.90
17988;DHT22;9119;50.932;5.342;2022-12-08T05:37:16;4.30;99.90
17988;DHT22;9119;50.932;5.342;2022-12-08T05:39:42;4.10;99.90
17988;DHT22;9119;50.932;5.342;2022-12-08T05:42:07;4.10;99.90
17988;DHT22;9119;50.932;5.342;2022-12-08T05:44:33;4.10;99.90
17988;DHT22;9119;50.932;5.342;2022-12-08T05:46:59;4.10;99.90
17988;DHT22;9119;50.932;5.342;2022-12-08T05:49:24;4.20;99.90
17988;DHT22;9119;50.932;5.342;2022-12-08T05:51:50;4.30;99.90
17988;DHT22;9119;50.932;5.342;2022-12-08T05:54:16;4.30;99.90
17988;DHT22;9119;50.932;5.342;2022-12-08T05:56:41;4.30;99.90
17988;DHT22;9119;50.932;5.342;2022-12-08T05:59:07;4.30;99.90
17988;DHT22;9119;50.932;5.342;2022-12-08T06:01:33;4.30;99.90
17988;DHT22;9119;50.932;5.342;2022-12-08T06:04:01;4.30;99.90
17988;DHT22;9119;50.932;5.342;2022-12-08T06:06:28;4.30;99.90
17988;DHT22;9119;50.932;5.342;2022-12-08T06:08:54;4.30;99.90
17988;DHT22;9119;50.932;5.342;2022-12-08T06:11:22;4.30;99.90
17988;DHT22;9119;50.932;5.342;2022-12-08T06:13:48;4.30;99.90
17988;DHT22;9119;50.932;5.342;2022-12-08T06:16:14;4.40;99.90
17988;DHT22;9119;50.932;5.342;2022-12-08T06:18:40;4.40;99.90
17988;DHT22;9119;50.932;5.342;2022-12-08T06:21:08;4.30;99.90
17988;DHT22;9119;50.932;5.342;2022-12-08T06:23:34;4.20;99.90
17988;DHT22;9119;50.932;5.342;2022-12-08T06:26:04;4.30;99.90
17988;DHT22;9119;50.932;5.342;2022-12-08T06:28:31;4.20;99.90
17988;DHT22;9119;50.932;5.342;2022-12-08T06:30:57;4.20;99.90
17988;DHT22;9119;50.932;5.342;2022-12-08T06:33:23;4.20;99.90
17988;DHT22;9119;50.932;5.342;2022-12-08T06:35:49;4.30;99.90
17988;DHT22;9119;50.932;5.342;2022-12-08T06:38:15;4.30;99.90
17988;DHT22;9119;50.932;5.342;2022-12-08T06:40:40;4.40;99.90
17988;DHT22;9119;50.932;5.342;2022-12-08T06:43:06;4.40;99.90
17988;DHT22;9119;50.932;5.342;2022-12-08T06:45:32;4.50;99.90
17988;DHT22;9119;50.932;5.342;2022-12-08T06:47:57;4.50;99.90
17988;DHT22;9119;50.932;5.342;2022-12-08T06:50:23;4.50;99.90
17988;DHT22;9119;50.932;5.342;2022-12-08T06:52:49;4.50;99.90
17988;DHT22;9119;50.932;5.342;2022-12-08T06:55:14;4.40;99.90
17988;DHT22;9119;50.932;5.342;2022-12-08T06:57:40;4.40;99.90
17988;DHT22;9119;50.932;5.342;2022-12-08T07:00:06;4.40;99.90
17988;DHT22;9119;50.932;5.342;2022-12-08T07:02:32;4.40;99.90
17988;DHT22;9119;50.932;5.342;2022-12-08T07:04:58;4.60;99.90
17988;DHT22;9119;50.932;5.342;2022-12-08T07:07:23;4.60;99.90
17988;DHT22;9119;50.932;5.342;2022-12-08T07:09:49;4.50;99.90
17988;DHT22;9119;50.932;5.342;2022-12-08T07:12:15;4.30;99.90
17988;DHT22;9119;50.932;5.342;2022-12-08T07:14:40;4.50;99.90
17988;DHT22;9119;50.932;5.342;2022-12-08T07:17:07;4.30;99.90
17988;DHT22;9119;50.932;5.342;2022-12-08T07:19:32;4.30;99.90
17988;DHT22;9119;50.932;5.342;2022-12-08T07:21:58;4.20;99.90
17988;DHT22;9119;50.932;5.342;2022-12-08T07:24:24;4.20;99.90
17988;DHT22;9119;50.932;5.342;2022-12-08T07:26:49;4.40;99.90
17988;DHT22;9119;50.932;5.342;2022-12-08T07:29:15;4.30;99.90
17988;DHT22;9119;50.932;5.342;2022-12-08T07:31:40;4.30;99.90
17988;DHT22;9119;50.932;5.342;2022-12-08T07:34:06;4.40;99.90
17988;DHT22;9119;50.932;5.342;2022-12-08T07:36:32;4.30;99.90
17988;DHT22;9119;50.932;5.342;2022-12-08T07:38:57;4.40;99.90
17988;DHT22;9119;50.932;5.342;2022-12-08T07:41:24;4.40;99.90
17988;DHT22;9119;50.932;5.342;2022-12-08T07:43:51;4.30;99.90
17988;DHT22;9119;50.932;5.342;2022-12-08T07:46:19;4.30;99.90
17988;DHT22;9119;50.932;5.342;2022-12-08T07:48:45;4.30;99.90
17988;DHT22;9119;50.932;5.342;2022-12-08T07:51:13;4.30;99.90
17988;DHT22;9119;50.932;5.342;2022-12-08T07:53:40;4.20;99.90
17988;DHT22;9119;50.932;5.342;2022-12-08T07:56:07;4.40;99.90
17988;DHT22;9119;50.932;5.342;2022-12-08T07:58:33;4.30;99.90
17988;DHT22;9119;50.932;5.342;2022-12-08T08:00:58;4.40;99.90
17988;DHT22;9119;50.932;5.342;2022-12-08T08:03:24;4.40;99.90
17988;DHT22;9119;50.932;5.342;2022-12-08T08:05:50;4.40;99.90
17988;DHT22;9119;50.932;5.342;2022-12-08T08:08:16;4.20;99.90
17988;DHT22;9119;50.932;5.342;2022-12-08T08:10:43;4.30;99.90
17988;DHT22;9119;50.932;5.342;2022-12-08T08:13:09;4.30;99.90
17988;DHT22;9119;50.932;5.342;2022-12-08T08:15:35;4.40;99.90
17988;DHT22;9119;50.932;5.342;2022-12-08T08:18:00;4.70;99.90
17988;DHT22;9119;50.932;5.342;2022-12-08T08:20:26;4.40;99.90
17988;DHT22;9119;50.932;5.342;2022-12-08T08:22:52;4.40;99.90
17988;DHT22;9119;50.932;5.342;2022-12-08T08:25:18;4.60;99.90
17988;DHT22;9119;50.932;5.342;2022-12-08T08:27:44;4.50;99.90
17988;DHT22;9119;50.932;5.342;2022-12-08T08:30:12;4.50;99.90
17988;DHT22;9119;50.932;5.342;2022-12-08T08:32:38;4.40;99.90
17988;DHT22;9119;50.932;5.342;2022-12-08T08:35:04;4.30;99.90
17988;DHT22;9119;50.932;5.342;2022-12-08T08:37:30;4.40;99.90
17988;DHT22;9119;50.932;5.342;2022-12-08T08:39:56;4.40;99.90
17988;DHT22;9119;50.932;5.342;2022-12-08T08:42:22;4.50;99.90
17988;DHT22;9119;50.932;5.342;2022-12-08T08:44:47;4.70;99.90
17988;DHT22;9119;50.932;5.342;2022-12-08T08:47:13;4.60;99.90
17988;DHT22;9119;50.932;5.342;2022-12-08T08:49:39;4.40;99.90
17988;DHT22;9119;50.932;5.342;2022-12-08T08:52:05;4.50;99.90
17988;DHT22;9119;50.932;5.342;2022-12-08T08:54:31;4.50;99.90
17988;DHT22;9119;50.932;5.342;2022-12-08T08:56:58;4.40;99.90
17988;DHT22;9119;50.932;5.342;2022-12-08T08:59:25;4.50;99.90
17988;DHT22;9119;50.932;5.342;2022-12-08T09:01:52;4.40;99.90
17988;DHT22;9119;50.932;5.342;2022-12-08T09:04:18;4.40;99.90
17988;DHT22;9119;50.932;5.342;2022-12-08T09:06:44;4.60;99.90
17988;DHT22;9119;50.932;5.342;2022-12-08T09:09:10;4.50;99.90
17988;DHT22;9119;50.932;5.342;2022-12-08T09:11:36;4.50;99.90
17988;DHT22;9119;50.932;5.342;2022-12-08T09:14:02;4.60;99.90
17988;DHT22;9119;50.932;5.342;2022-12-08T09:16:28;4.60;99.90
17988;DHT22;9119;50.932;5.342;2022-12-08T09:18:53;4.70;99.90
17988;DHT22;9119;50.932;5.342;2022-12-08T09:21:23;4.70;99.90
17988;DHT22;9119;50.932;5.342;2022-12-08T09:23:54;4.60;99.90
17988;DHT22;9119;50.932;5.342;2022-12-08T09:26:20;4.70;99.90
17988;DHT22;9119;50.932;5.342;2022-12-08T09:28:48;4.70;99.90
17988;DHT22;9119;50.932;5.342;2022-12-08T09:31:15;4.70;99.90
17988;DHT22;9119;50.932;5.342;2022-12-08T09:33:42;4.80;99.90
17988;DHT22;9119;50.932;5.342;2022-12-08T09:36:08;4.90;99.90
17988;DHT22;9119;50.932;5.342;2022-12-08T09:38:34;4.80;99.90
17988;DHT22;9119;50.932;5.342;2022-12-08T09:41:02;4.90;99.90
17988;DHT22;9119;50.932;5.342;2022-12-08T09:44:43;4.80;99.90
17988;DHT22;9119;50.932;5.342;2022-12-08T09:46:36;4.90;99.90
17988;DHT22;9119;50.932;5.342;2022-12-08T09:49:03;5.00;99.90
17988;DHT22;9119;50.932;5.342;2022-12-08T09:51:34;5.00;99.90
17988;DHT22;9119;50.932;5.342;2022-12-08T09:54:16;5.00;99.90
17988;DHT22;9119;50.932;5.342;2022-12-08T09:56:43;5.00;99.90
17988;DHT22;9119;50.932;5.342;2022-12-08T09:59:25;5.00;99.90
17988;DHT22;9119;50.932;5.342;2022-12-08T10:01:53;5.00;99.90
17988;DHT22;9119;50.932;5.342;2022-12-08T10:04:21;5.00;99.90
17988;DHT22;9119;50.932;5.342;2022-12-08T10:09:55;5.00;99.90
17988;DHT22;9119;50.932;5.342;2022-12-08T10:18:29;5.10;99.90
17988;DHT22;9119;50.932;5.342;2022-12-08T10:21:20;5.10;99.90
17988;DHT22;9119;50.932;5.342;2022-12-08T10:23:53;5.20;99.90
17988;DHT22;9119;50.932;5.342;2022-12-08T10:26:20;5.20;99.90
17988;DHT22;9119;50.932;5.342;2022-12-08T10:28:46;5.10;99.90
17988;DHT22;9119;50.932;5.342;2022-12-08T10:31:18;5.10;99.90
17988;DHT22;9119;50.932;5.342;2022-12-08T10:33:45;5.10;99.90
17988;DHT22;9119;50.932;5.342;2022-12-08T10:36:11;5.20;99.90
17988;DHT22;9119;50.932;5.342;2022-12-08T10:38:38;5.40;99.90
17988;DHT22;9119;50.932;5.342;2022-12-08T10:43:58;5.20;99.90
17988;DHT22;9119;50.932;5.342;2022-12-08T10:46:26;5.10;99.90
17988;DHT22;9119;50.932;5.342;2022-12-08T10:48:55;5.00;99.90
17988;DHT22;9119;50.932;5.342;2022-12-08T10:51:41;5.00;99.90
17988;DHT22;9119;50.932;5.342;2022-12-08T10:54:29;5.00;99.90
17988;DHT22;9119;50.932;5.342;2022-12-08T10:56:57;5.00;99.90
17988;DHT22;9119;50.932;5.342;2022-12-08T10:59:23;5.10;99.90
17988;DHT22;9119;50.932;5.342;2022-12-08T11:01:54;5.10;99.90
17988;DHT22;9119;50.932;5.342;2022-12-08T11:04:29;5.10;99.90
17988;DHT22;9119;50.932;5.342;2022-12-08T11:06:58;5.00;99.90
17988;DHT22;9119;50.932;5.342;2022-12-08T11:12:05;4.80;99.90
17988;DHT22;9119;50.932;5.342;2022-12-08T11:19:45;5.00;99.90
17988;DHT22;9119;50.932;5.342;2022-12-08T11:25:11;5.10;99.90
17988;DHT22;9119;50.932;5.342;2022-12-08T11:27:45;5.00;99.90
17988;DHT22;9119;50.932;5.342;2022-12-08T11:32:42;5.10;99.90
17988;DHT22;9119;50.932;5.342;2022-12-08T11:35:19;5.10;99.90
17988;DHT22;9119;50.932;5.342;2022-12-08T11:37:47;5.10;99.90
17988;DHT22;9119;50.932;5.342;2022-12-08T11:40:22;5.20;99.90
17988;DHT22;9119;50.932;5.342;2022-12-08T11:45:49;5.30;99.90
17988;DHT22;9119;50.932;5.342;2022-12-08T11:48:21;5.30;99.90
17988;DHT22;9119;50.932;5.342;2022-12-08T11:50:54;5.30;99.90
17988;DHT22;9119;50.932;5.342;2022-12-08T11:56:05;5.30;99.90
17988;DHT22;9119;50.932;5.342;2022-12-08T11:58:58;5.20;99.90
17988;DHT22;9119;50.932;5.342;2022-12-08T12:01:26;5.30;99.90
17988;DHT22;9119;50.932;5.342;2022-12-08T12:18:02;5.50;99.90
17988;DHT22;9119;50.932;5.342;2022-12-08T12:20:32;5.60;99.90
17988;DHT22;9119;50.932;5.342;2022-12-08T12:23:09;5.60;99.90
17988;DHT22;9119;50.932;5.342;2022-12-08T12:25:50;5.90;99.90
17988;DHT22;9119;50.932;5.342;2022-12-08T12:28:19;5.80;99.90
17988;DHT22;9119;50.932;5.342;2022-12-08T12:30:56;5.70;99.90
17988;DHT22;9119;50.932;5.342;2022-12-08T12:33:23;5.60;99.90
17988;DHT22;9119;50.932;5.342;2022-12-08T12:35:49;5.70;99.90
17988;DHT22;9119;50.932;5.342;2022-12-08T12:38:34;5.70;99.90
17988;DHT22;9119;50.932;5.342;2022-12-08T12:41:26;5.80;99.90
17988;DHT22;9119;50.932;5.342;2022-12-08T12:54:34;6.00;99.90
17988;DHT22;9119;50.932;5.342;2022-12-08T13:08:02;5.80;99.90
17988;DHT22;9119;50.932;5.342;2022-12-08T13:15:37;5.90;99.90
17988;DHT22;9119;50.932;5.342;2022-12-08T13:18:05;5.90;99.90
17988;DHT22;9119;50.932;5.342;2022-12-08T13:20:40;5.80;99.90
17988;DHT22;9119;50.932;5.342;2022-12-08T13:23:26;5.80;99.90
17988;DHT22;9119;50.932;5.342;2022-12-08T13:26:08;5.80;99.90
17988;DHT22;9119;50.932;5.342;2022-12-08T13:31:35;5.80;99.90
17988;DHT22;9119;50.932;5.342;2022-12-08T13:34:27;5.80;99.90
17988;DHT22;9119;50.932;5.342;2022-12-08T13:36:55;5.80;99.90
17988;DHT22;9119;50.932;5.342;2022-12-08T13:40:07;5.80;99.90
17988;DHT22;9119;50.932;5.342;2022-12-08T13:45:23;5.80;99.90
17988;DHT22;9119;50.932;5.342;2022-12-08T13:48:02;5.80;99.90
17988;DHT22;9119;50.932;5.342;2022-12-08T13:50:39;5.80;99.90
17988;DHT22;9119;50.932;5.342;2022-12-08T13:53:10;5.80;99.90
17988;DHT22;9119;50.932;5.342;2022-12-08T13:55:46;5.80;99.90
17988;DHT22;9119;50.932;5.342;2022-12-08T13:58:28;5.80;99.90
17988;DHT22;9119;50.932;5.342;2022-12-08T14:03:29;5.80;99.90
17988;DHT22;9119;50.932;5.342;2022-12-08T14:05:55;5.80;99.90
17988;DHT22;9119;50.932;5.342;2022-12-08T14:08:32;5.70;99.90
17988;DHT22;9119;50.932;5.342;2022-12-08T14:11:03;5.60;99.90
17988;DHT22;9119;50.932;5.342;2022-12-08T14:13:31;5.60;99.90
17988;DHT22;9119;50.932;5.342;2022-12-08T14:15:58;5.60;99.90
17988;DHT22;9119;50.932;5.342;2022-12-08T14:18:29;5.60;99.90
17988;DHT22;9119;50.932;5.342;2022-12-08T14:21:04;5.80;99.90
17988;DHT22;9119;50.932;5.342;2022-12-08T14:23:33;5.70;99.90
17988;DHT22;9119;50.932;5.342;2022-12-08T14:26:00;5.70;99.90
17988;DHT22;9119;50.932;5.342;2022-12-08T14:28:25;5.70;99.90
17988;DHT22;9119;50.932;5.342;2022-12-08T14:30:53;5.70;99.90
17988;DHT22;9119;50.932;5.342;2022-12-08T14:33:19;5.80;99.90
17988;DHT22;9119;50.932;5.342;2022-12-08T14:35:50;5.80;99.90
17988;DHT22;9119;50.932;5.342;2022-12-08T14:38:18;5.70;99.90
17988;DHT22;9119;50.932;5.342;2022-12-08T14:40:46;5.80;99.90
17988;DHT22;9119;50.932;5.342;2022-12-08T14:43:19;5.70;99.90
17988;DHT22;9119;50.932;5.342;2022-12-08T14:56:23;5.70;99.90
17988;DHT22;9119;50.932;5.342;2022-12-08T14:59:10;5.70;99.90
17988;DHT22;9119;50.932;5.342;2022-12-08T15:01:38;5.70;99.90
17988;DHT22;9119;50.932;5.342;2022-12-08T15:06:52;5.70;99.90
17988;DHT22;9119;50.932;5.342;2022-12-08T15:09:38;5.60;99.90
17988;DHT22;9119;50.932;5.342;2022-12-08T15:14:40;5.50;99.90
17988;DHT22;9119;50.932;5.342;2022-12-08T15:17:32;5.60;99.90
17988;DHT22;9119;50.932;5.342;2022-12-08T15:20:00;5.60;99.90
17988;DHT22;9119;50.932;5.342;2022-12-08T15:22:26;5.60;99.90
17988;DHT22;9119;50.932;5.342;2022-12-08T15:24:54;5.60;99.90
17988;DHT22;9119;50.932;5.342;2022-12-08T15:27:22;5.40;99.90
17988;DHT22;9119;50.932;5.342;2022-12-08T15:29:48;5.50;99.90
17988;DHT22;9119;50.932;5.342;2022-12-08T15:32:22;5.50;99.90
17988;DHT22;9119;50.932;5.342;2022-12-08T15:34:49;5.40;99.90
17988;DHT22;9119;50.932;5.342;2022-12-08T15:37:19;5.50;99.90
17988;DHT22;9119;50.932;5.342;2022-12-08T15:39:46;5.40;99.90
17988;DHT22;9119;50.932;5.342;2022-12-08T15:42:11;5.30;99.90
17988;DHT22;9119;50.932;5.342;2022-12-08T15:44:38;5.30;99.90
17988;DHT22;9119;50.932;5.342;2022-12-08T15:47:04;5.20;99.90
17988;DHT22;9119;50.932;5.342;2022-12-08T15:49:30;5.00;99.90
17988;DHT22;9119;50.932;5.342;2022-12-08T15:51:56;5.20;99.90
17988;DHT22;9119;50.932;5.342;2022-12-08T15:54:22;5.00;99.90
17988;DHT22;9119;50.932;5.342;2022-12-08T15:56:55;4.80;99.90
17988;DHT22;9119;50.932;5.342;2022-12-08T15:59:23;4.80;99.90
17988;DHT22;9119;50.932;5.342;2022-12-08T16:01:50;4.80;99.90
17988;DHT22;9119;50.932;5.342;2022-12-08T16:04:21;5.50;99.90
17988;DHT22;9119;50.932;5.342;2022-12-08T16:06:51;5.10;99.90
17988;DHT22;9119;50.932;5.342;2022-12-08T16:09:34;5.00;99.90
17988;DHT22;9119;50.932;5.342;2022-12-08T16:12:00;5.00;99.90
17988;DHT22;9119;50.932;5.342;2022-12-08T16:14:44;5.10;99.90
17988;DHT22;9119;50.932;5.342;2022-12-08T16:17:17;4.80;99.90
17988;DHT22;9119;50.932;5.342;2022-12-08T16:19:43;4.80;99.90
17988;DHT22;9119;50.932;5.342;2022-12-08T16:22:18;4.80;99.90
17988;DHT22;9119;50.932;5.342;2022-12-08T16:24:44;4.90;99.90
17988;DHT22;9119;50.932;5.342;2022-12-08T16:27:22;4.80;99.90
17988;DHT22;9119;50.932;5.342;2022-12-08T16:29:48;4.50;99.90
17988;DHT22;9119;50.932;5.342;2022-12-08T16:32:15;4.50;99.90
17988;DHT22;9119;50.932;5.342;2022-12-08T16:34:41;4.50;99.90
17988;DHT22;9119;50.932;5.342;2022-12-08T16:37:19;4.40;99.90
17988;DHT22;9119;50.932;5.342;2022-12-08T16:39:45;4.40;99.90
17988;DHT22;9119;50.932;5.342;2022-12-08T16:42:26;4.40;99.90
17988;DHT22;9119;50.932;5.342;2022-12-08T16:45:23;4.30;99.90
17988;DHT22;9119;50.932;5.342;2022-12-08T16:47:52;4.30;99.90
17988;DHT22;9119;50.932;5.342;2022-12-08T16:50:24;4.50;99.90
17988;DHT22;9119;50.932;5.342;2022-12-08T16:52:59;4.40;99.90
17988;DHT22;9119;50.932;5.342;2022-12-08T16:55:25;4.70;99.90
17988;DHT22;9119;50.932;5.342;2022-12-08T16:57:51;4.60;99.90
17988;DHT22;9119;50.932;5.342;2022-12-08T17:00:22;4.50;99.90
17988;DHT22;9119;50.932;5.342;2022-12-08T17:02:51;4.50;99.90
17988;DHT22;9119;50.932;5.342;2022-12-08T17:05:19;4.50;99.90
17988;DHT22;9119;50.932;5.342;2022-12-08T17:07:46;4.50;99.90
17988;DHT22;9119;50.932;5.342;2022-12-08T17:10:15;4.40;99.90
17988;DHT22;9119;50.932;5.342;2022-12-08T17:12:41;4.60;99.90
17988;DHT22;9119;50.932;5.342;2022-12-08T17:15:09;4.60;99.90
17988;DHT22;9119;50.932;5.342;2022-12-08T17:17:35;4.80;99.90
17988;DHT22;9119;50.932;5.342;2022-12-08T17:20:02;4.70;99.90
17988;DHT22;9119;50.932;5.342;2022-12-08T17:22:30;4.70;99.90
17988;DHT22;9119;50.932;5.342;2022-12-08T17:24:56;4.90;99.90
17988;DHT22;9119;50.932;5.342;2022-12-08T17:27:22;5.10;99.90
17988;DHT22;9119;50.932;5.342;2022-12-08T17:29:47;5.00;99.90
17988;DHT22;9119;50.932;5.342;2022-12-08T17:32:13;4.80;99.90
17988;DHT22;9119;50.932;5.342;2022-12-08T17:34:39;4.80;99.90
17988;DHT22;9119;50.932;5.342;2022-12-08T17:37:05;4.80;99.90
17988;DHT22;9119;50.932;5.342;2022-12-08T17:39:31;4.70;99.90
17988;DHT22;9119;50.932;5.342;2022-12-08T17:41:56;4.80;99.90
17988;DHT22;9119;50.932;5.342;2022-12-08T17:44:22;4.70;99.90
17988;DHT22;9119;50.932;5.342;2022-12-08T17:46:48;4.60;99.90
17988;DHT22;9119;50.932;5.342;2022-12-08T17:49:22;4.60;99.90
17988;DHT22;9119;50.932;5.342;2022-12-08T17:51:50;4.50;99.90
17988;DHT22;9119;50.932;5.342;2022-12-08T17:54:17;4.50;99.90
17988;DHT22;9119;50.932;5.342;2022-12-08T17:56:43;4.70;99.90
17988;DHT22;9119;50.932;5.342;2022-12-08T17:59:11;4.60;99.90
17988;DHT22;9119;50.932;5.342;2022-12-08T18:01:37;4.60;99.90
17988;DHT22;9119;50.932;5.342;2022-12-08T18:04:04;4.50;99.90
17988;DHT22;9119;50.932;5.342;2022-12-08T18:06:31;4.40;99.90
17988;DHT22;9119;50.932;5.342;2022-12-08T18:08:58;4.40;99.90
17988;DHT22;9119;50.932;5.342;2022-12-08T18:11:24;4.40;99.90
17988;DHT22;9119;50.932;5.342;2022-12-08T18:13:51;4.40;99.90
17988;DHT22;9119;50.932;5.342;2022-12-08T18:16:22;4.40;99.90
17988;DHT22;9119;50.932;5.342;2022-12-08T18:18:48;4.40;99.90